< Typhoon 200316 2003 Season Typhoon 200318 >
Typhoon 200317 (KETSANA)
General InformationTrack Information on Google MapsDetailed Wind InformationAccess Analytics MapList of All Images || NewsDisaster Info.WeblogResourceGoogle EarthGE AnimationAtom FeedGeoJSON
Detalied Best Track (Time Zone = UTC)
Year Month Day Hour Lat. Long. Pressure (hPa) Wind (kt) Class Image Chart
2003 10 17 06 15.1 131.8 1004 0 2 Image Chart
2003 10 17 12 15.0 132.1 1004 0 2 Image Chart
2003 10 17 18 14.8 132.2 1002 0 2 Image Chart
2003 10 18 00 14.7 132.1 1002 0 2 Image Chart
2003 10 18 06 14.8 131.8 1000 0 2 Image Chart
2003 10 18 12 15.1 131.6 1000 0 2 Image Chart
2003 10 18 18 15.4 130.9 1000 0 2 Image Chart
2003 10 19 00 15.6 130.4 996 35 3 Image Chart
2003 10 19 06 15.5 130.0 992 35 3 Image Chart
2003 10 19 12 15.4 130.1 990 45 3 Image Chart
2003 10 19 18 15.5 130.5 985 50 4 Image Chart
2003 10 20 00 15.6 130.7 980 55 4 Image Chart
2003 10 20 06 15.7 130.9 975 60 4 Image Chart
2003 10 20 12 15.9 131.1 970 65 5 Image Chart
2003 10 20 18 16.2 131.0 965 70 5 Image Chart
2003 10 21 00 16.4 131.2 950 80 5 Image Chart
2003 10 21 06 16.7 131.3 945 85 5 Image Chart
2003 10 21 12 17.0 131.2 940 85 5 Image Chart
2003 10 21 18 17.2 131.2 940 85 5 Image Chart
2003 10 22 00 17.4 131.1 940 90 5 Image Chart
2003 10 22 06 17.8 131.1 940 90 5 Image Chart
2003 10 22 12 18.1 131.2 940 85 5 Image Chart
2003 10 22 18 18.5 131.5 940 85 5 Image Chart
2003 10 23 00 18.7 132.0 940 85 5 Image Chart
2003 10 23 06 19.2 132.3 940 85 5 Image Chart
2003 10 23 12 19.6 132.8 940 85 5 Image Chart
2003 10 23 18 20.0 133.5 940 85 5 Image Chart
2003 10 24 00 20.4 133.6 945 80 5 Image Chart
2003 10 24 06 21.0 133.7 945 80 5 Image Chart
2003 10 24 12 21.8 134.1 945 80 5 Image Chart
2003 10 24 18 22.9 134.8 945 80 5 Image Chart
2003 10 25 00 24.6 135.7 950 80 5 Image Chart
2003 10 25 06 25.9 137.1 955 75 5 Image Chart
2003 10 25 12 27.7 139.1 965 70 5 Image Chart
2003 10 25 18 29.8 141.9 975 60 4 Image Chart
2003 10 26 00 32.1 144.6 980 55 4 Image Chart
2003 10 26 06 34.4 147.7 986 0 6 Image Chart
2003 10 26 12 36.1 150.3 990 0 6 Image Chart
2003 10 26 18 38.2 154.6 996 0 6 Image Chart
Japan Meteorological Agency Best Track Data | Correction Date : 2004-02-17
< Typhoon 200316 2003 Season Typhoon 200318 >

Help